Time;durP1;ratioP1;P1;durP2;ratioP2;P2;SDS_P1;SDS_P2;PMS_P1;PMS_P2;Temp;Humidity;BMP_temperature;BMP_pressure;BME280_temperature;BME280_humidity;BME280_pressure;Samples;Min_cycle;Max_cycle;Signal;HPM_P1;HPM_P2
2021/05/28 00:00:48;;;;;;;5.05;1.02;;;20.80;61.30;;;;;;5053472;28;20029;-37
2021/05/28 00:03:14;;;;;;;1.08;0.70;;;20.80;61.30;;;;;;5054859;28;20036;-37
2021/05/28 00:05:39;;;;;;;0.90;0.70;;;20.80;61.30;;;;;;5054783;28;20116;-37
2021/05/28 00:08:05;;;;;;;0.82;0.70;;;20.80;61.30;;;;;;5058011;28;20867;-37
2021/05/28 00:10:31;;;;;;;1.25;0.75;;;20.80;61.20;;;;;;5054499;28;20036;-37
2021/05/28 00:12:57;;;;;;;2.10;1.13;;;20.80;61.20;;;;;;5054031;28;20174;-39
2021/05/28 00:15:23;;;;;;;0.90;0.63;;;20.80;61.10;;;;;;5054592;28;20525;-37
2021/05/28 00:17:48;;;;;;;1.42;0.60;;;20.80;61.10;;;;;;5053741;28;20104;-38
2021/05/28 00:20:15;;;;;;;2.30;0.70;;;20.80;61.10;;;;;;5054350;28;20168;-37
2021/05/28 00:22:41;;;;;;;1.27;0.73;;;20.80;61.10;;;;;;5054213;28;20029;-38
2021/05/28 00:25:08;;;;;;;1.88;0.82;;;20.80;61.00;;;;;;5053775;28;20039;-37
2021/05/28 00:27:33;;;;;;;1.23;0.80;;;20.80;61.00;;;;;;5053756;28;20020;-37
2021/05/28 00:30:00;;;;;;;1.92;1.17;;;20.80;61.00;;;;;;5050626;28;20067;-37
2021/05/28 00:32:26;;;;;;;2.22;1.00;;;20.80;61.00;;;;;;5053507;28;20037;-37
2021/05/28 00:34:52;;;;;;;1.20;0.80;;;20.80;61.00;;;;;;5053277;28;20386;-37
2021/05/28 00:37:17;;;;;;;1.40;0.70;;;20.80;61.00;;;;;;5053735;28;20041;-37
2021/05/28 00:39:43;;;;;;;1.83;0.80;;;20.80;60.90;;;;;;5053713;28;20115;-42
2021/05/28 00:42:09;;;;;;;1.65;0.90;;;20.80;60.90;;;;;;5053645;28;20052;-37
2021/05/28 00:44:38;;;;;;;1.35;0.88;;;20.80;60.80;;;;;;5053046;28;20075;-37
2021/05/28 00:47:04;;;;;;;1.05;0.75;;;20.80;60.70;;;;;;5053005;28;20013;-37
2021/05/28 00:49:30;;;;;;;2.40;0.77;;;20.80;60.70;;;;;;5054009;28;20035;-37
2021/05/28 00:51:56;;;;;;;0.95;0.73;;;20.80;60.60;;;;;;5051868;28;20036;-37
2021/05/28 00:54:22;;;;;;;1.85;1.08;;;20.80;60.60;;;;;;5053952;28;20090;-37
2021/05/28 00:56:48;;;;;;;1.20;0.70;;;20.80;60.50;;;;;;5052624;28;20033;-38
2021/05/28 00:59:15;;;;;;;1.60;0.95;;;20.80;60.40;;;;;;5053946;28;20025;-37
2021/05/28 01:01:41;;;;;;;0.80;0.73;;;20.80;60.50;;;;;;5053637;28;20037;-37
2021/05/28 01:04:07;;;;;;;1.35;0.73;;;20.80;60.50;;;;;;5052382;28;20025;-37
2021/05/28 01:06:33;;;;;;;2.88;0.85;;;20.80;60.40;;;;;;5057309;28;20028;-37
2021/05/28 01:08:59;;;;;;;2.30;0.95;;;20.80;60.30;;;;;;5044937;28;20025;-36
2021/05/28 01:11:25;;;;;;;1.92;0.73;;;20.70;60.20;;;;;;5053732;28;20433;-37
2021/05/28 01:13:51;;;;;;;1.60;0.77;;;20.70;60.20;;;;;;5052373;28;20072;-37
2021/05/28 01:16:17;;;;;;;1.80;0.93;;;20.80;60.20;;;;;;5053615;28;20032;-37
2021/05/28 01:18:43;;;;;;;1.67;1.15;;;20.80;60.20;;;;;;5053142;28;20040;-42
2021/05/28 01:21:09;;;;;;;1.15;0.70;;;20.80;60.10;;;;;;5052754;28;20029;-37
2021/05/28 01:23:49;;;;;;;2.17;0.80;;;20.70;60.10;;;;;;5048484;28;20033;-37
2021/05/28 01:26:15;;;;;;;1.30;1.02;;;20.70;60.00;;;;;;5052884;28;20025;-36
2021/05/28 01:28:41;;;;;;;2.00;0.98;;;20.80;60.00;;;;;;5052867;28;20035;-37
2021/05/28 01:31:08;;;;;;;1.00;0.77;;;20.80;59.90;;;;;;5052088;28;20055;-37
2021/05/28 01:33:34;;;;;;;1.83;0.60;;;20.70;59.80;;;;;;5052599;28;20390;-38
2021/05/28 01:35:59;;;;;;;1.17;0.93;;;20.80;59.80;;;;;;5052116;28;20029;-37
2021/05/28 01:38:26;;;;;;;1.33;0.82;;;20.80;59.80;;;;;;5053019;28;20064;-37
2021/05/28 01:40:52;;;;;;;1.80;0.80;;;20.70;59.60;;;;;;5051783;28;20033;-37
2021/05/28 01:43:18;;;;;;;1.27;0.80;;;20.70;59.50;;;;;;5053050;28;20057;-38
2021/05/28 01:45:44;;;;;;;1.30;0.70;;;20.70;59.50;;;;;;5052813;28;20048;-45
2021/05/28 01:48:19;;;;;;;2.13;0.70;;;20.80;59.40;;;;;;5052242;28;20029;-37
2021/05/28 01:50:45;;;;;;;1.15;0.82;;;20.80;59.40;;;;;;5052776;28;20041;-45
2021/05/28 01:53:22;;;;;;;1.27;0.68;;;20.70;59.30;;;;;;5052174;28;20025;-37
2021/05/28 01:55:48;;;;;;;1.50;0.95;;;20.70;59.30;;;;;;5052180;28;20046;-42
2021/05/28 01:58:16;;;;;;;1.00;0.40;;;20.80;59.20;;;;;;5052419;28;20063;-37
2021/05/28 02:00:44;;;;;;;1.25;0.70;;;20.70;59.20;;;;;;5052192;28;20428;-37
2021/05/28 02:03:10;;;;;;;1.65;0.82;;;20.70;59.20;;;;;;5051896;28;20158;-38
2021/05/28 02:05:37;;;;;;;0.98;0.85;;;20.80;59.10;;;;;;5052664;28;20104;-37
2021/05/28 02:08:04;;;;;;;1.42;0.70;;;20.80;59.10;;;;;;5053394;28;20443;-38
2021/05/28 02:10:30;;;;;;;1.27;0.70;;;20.70;58.90;;;;;;5052242;28;20120;-38
2021/05/28 02:12:59;;;;;;;3.00;0.70;;;20.70;58.80;;;;;;5033858;28;20029;-38
2021/05/28 02:15:26;;;;;;;1.65;0.80;;;20.70;58.80;;;;;;5052533;28;20052;-37
2021/05/28 02:17:52;;;;;;;1.55;0.80;;;20.70;58.70;;;;;;5046945;28;20048;-37
2021/05/28 02:20:19;;;;;;;0.95;0.80;;;20.70;58.70;;;;;;5051749;28;20107;-37
2021/05/28 02:22:45;;;;;;;2.45;0.90;;;20.70;58.60;;;;;;5051775;28;20047;-38
2021/05/28 02:25:10;;;;;;;2.63;0.70;;;20.70;58.50;;;;;;5050746;28;20033;-38
2021/05/28 02:27:36;;;;;;;2.03;0.73;;;20.70;58.50;;;;;;5051873;28;20029;-38
2021/05/28 02:30:06;;;;;;;1.83;0.80;;;20.70;58.50;;;;;;5050548;28;20109;-37
2021/05/28 02:32:32;;;;;;;1.25;0.80;;;20.70;58.40;;;;;;5051919;28;20417;-37
2021/05/28 02:34:58;;;;;;;1.27;0.80;;;20.80;58.50;;;;;;5050875;28;20085;-37
2021/05/28 02:37:24;;;;;;;2.35;0.90;;;20.80;58.40;;;;;;5052160;28;20036;-37
2021/05/28 02:39:50;;;;;;;1.50;0.70;;;20.80;58.40;;;;;;5051225;28;20028;-45
2021/05/28 02:42:15;;;;;;;1.38;0.70;;;20.70;58.20;;;;;;5052023;28;20025;-37
2021/05/28 02:44:41;;;;;;;0.98;0.70;;;20.70;58.20;;;;;;5051671;28;20116;-38
2021/05/28 02:47:07;;;;;;;1.63;0.80;;;20.70;58.10;;;;;;5051169;28;20021;-37
2021/05/28 02:49:35;;;;;;;1.30;0.70;;;20.70;58.20;;;;;;5051399;28;20040;-37
2021/05/28 02:52:01;;;;;;;1.25;0.70;;;20.70;58.10;;;;;;5033221;28;20072;-37
2021/05/28 02:54:27;;;;;;;2.42;0.70;;;20.70;58.10;;;;;;5051217;28;20044;-37
2021/05/28 02:56:53;;;;;;;0.98;0.60;;;20.80;58.00;;;;;;5050353;28;20137;-37
2021/05/28 02:59:18;;;;;;;0.98;0.60;;;20.80;58.00;;;;;;5051641;28;20045;-37
2021/05/28 03:01:44;;;;;;;2.55;0.70;;;20.80;58.00;;;;;;5051601;28;20060;-37
2021/05/28 03:04:10;;;;;;;2.10;1.33;;;20.70;57.90;;;;;;5050645;28;20037;-37
2021/05/28 03:06:35;;;;;;;1.10;0.77;;;20.70;57.80;;;;;;5055278;28;20025;-37
2021/05/28 03:09:02;;;;;;;1.65;0.80;;;20.70;57.70;;;;;;5050467;28;20021;-36
2021/05/28 03:11:27;;;;;;;1.90;0.80;;;20.80;57.80;;;;;;5048949;28;20047;-38
2021/05/28 03:13:53;;;;;;;1.90;0.70;;;20.70;57.70;;;;;;5049652;28;20033;-38
2021/05/28 03:16:19;;;;;;;1.00;0.80;;;20.70;57.70;;;;;;5051240;28;20033;-38
2021/05/28 03:18:53;;;;;;;1.33;0.85;;;20.70;57.50;;;;;;5051598;28;20029;-36
2021/05/28 03:21:23;;;;;;;1.00;0.80;;;20.70;57.50;;;;;;5051113;28;20040;-38
2021/05/28 03:23:50;;;;;;;0.98;0.50;;;20.70;57.50;;;;;;5051072;28;20480;-42
2021/05/28 03:26:16;;;;;;;1.17;0.80;;;20.80;57.50;;;;;;5050752;28;20112;-36
2021/05/28 03:28:41;;;;;;;1.17;0.60;;;20.80;57.40;;;;;;5051049;28;20108;-38
2021/05/28 03:31:07;;;;;;;0.90;0.77;;;20.70;57.30;;;;;;5050580;28;20028;-36
2021/05/28 03:33:33;;;;;;;2.03;1.20;;;20.70;57.20;;;;;;5051216;28;20484;-37
2021/05/28 03:35:59;;;;;;;2.47;0.68;;;20.70;57.30;;;;;;5050316;28;20378;-37
2021/05/28 03:38:25;;;;;;;1.83;0.85;;;20.70;57.20;;;;;;5051260;28;20037;-37
2021/05/28 03:40:51;;;;;;;0.82;0.52;;;20.80;57.20;;;;;;5050806;28;20032;-42
2021/05/28 03:43:16;;;;;;;1.58;0.77;;;20.70;57.00;;;;;;5050717;28;20474;-38
2021/05/28 03:45:42;;;;;;;3.28;0.82;;;20.70;57.00;;;;;;5051122;28;20065;-37
2021/05/28 03:48:08;;;;;;;1.15;0.70;;;20.80;57.00;;;;;;5050237;28;20025;-37
2021/05/28 03:50:34;;;;;;;0.80;0.80;;;20.70;56.90;;;;;;5050729;28;20492;-37
2021/05/28 03:52:59;;;;;;;1.52;0.90;;;20.70;57.00;;;;;;5032196;28;20025;-37
2021/05/28 03:55:25;;;;;;;1.23;0.75;;;20.80;57.00;;;;;;5051235;28;20025;-38
2021/05/28 03:57:52;;;;;;;1.75;1.00;;;20.70;57.00;;;;;;5050363;28;20123;-43
2021/05/28 04:00:18;;;;;;;0.82;0.63;;;20.70;56.90;;;;;;5050503;28;20095;-37
2021/05/28 04:02:44;;;;;;;1.45;0.80;;;20.70;56.80;;;;;;5050235;28;20059;-38
2021/05/28 04:05:11;;;;;;;2.20;0.95;;;20.80;56.80;;;;;;5049401;28;20060;-37
2021/05/28 04:07:37;;;;;;;1.00;0.77;;;20.70;56.80;;;;;;5045989;28;20056;-38
2021/05/28 04:10:03;;;;;;;1.08;0.70;;;20.70;56.70;;;;;;5031631;28;20049;-37
2021/05/28 04:12:29;;;;;;;1.13;0.80;;;20.70;56.70;;;;;;5049975;28;20099;-37
2021/05/28 04:14:55;;;;;;;0.95;0.60;;;20.70;56.60;;;;;;5049259;28;20037;-37
2021/05/28 04:17:20;;;;;;;0.93;0.60;;;20.80;56.60;;;;;;5048489;28;20025;-37
2021/05/28 04:19:46;;;;;;;0.75;0.70;;;20.70;56.50;;;;;;5053678;28;20442;-37
2021/05/28 04:22:12;;;;;;;1.90;0.90;;;20.70;56.30;;;;;;5053527;28;20051;-36
2021/05/28 04:24:37;;;;;;;7.97;1.77;;;20.70;56.30;;;;;;5054581;28;20033;-37
2021/05/28 04:27:03;;;;;;;1.05;0.80;;;20.80;56.30;;;;;;5053585;28;20029;-37
2021/05/28 04:29:29;;;;;;;0.88;0.73;;;20.70;56.20;;;;;;5054018;28;20041;-38
2021/05/28 04:31:55;;;;;;;1.38;0.80;;;20.70;56.10;;;;;;5053258;28;20059;-37
2021/05/28 04:34:20;;;;;;;1.05;0.93;;;20.80;56.20;;;;;;5054168;28;20102;-38
2021/05/28 04:36:46;;;;;;;0.82;0.70;;;20.80;56.20;;;;;;5052973;28;20056;-37
2021/05/28 04:39:12;;;;;;;3.30;0.77;;;20.80;56.10;;;;;;5051976;28;20029;-38
2021/05/28 04:41:37;;;;;;;2.20;0.90;;;20.70;56.00;;;;;;5049811;28;20029;-37
2021/05/28 04:44:03;;;;;;;1.17;0.65;;;20.80;56.00;;;;;;5052107;28;20494;-37
2021/05/28 04:46:29;;;;;;;1.05;0.70;;;20.70;55.80;;;;;;5052723;28;20029;-37
2021/05/28 04:48:55;;;;;;;2.85;1.00;;;20.70;55.80;;;;;;5052776;28;20028;-36
2021/05/28 04:51:20;;;;;;;1.00;0.80;;;20.70;55.80;;;;;;5053455;28;20037;-36
2021/05/28 04:53:46;;;;;;;1.77;0.80;;;20.80;55.90;;;;;;5053969;28;20028;-37
2021/05/28 04:56:12;;;;;;;0.93;0.68;;;20.70;55.80;;;;;;5053209;28;20029;-36
2021/05/28 04:58:37;;;;;;;3.25;0.80;;;20.80;55.80;;;;;;5053442;28;20060;-37
2021/05/28 05:01:03;;;;;;;2.15;1.00;;;20.70;56.30;;;;;;5048234;28;20055;-37
2021/05/28 05:03:29;;;;;;;1.50;0.75;;;20.80;55.70;;;;;;5053487;28;20091;-37
2021/05/28 05:05:54;;;;;;;1.33;0.90;;;20.70;55.60;;;;;;5052717;28;20037;-37
2021/05/28 05:08:20;;;;;;;1.40;0.90;;;20.80;56.20;;;;;;5058721;28;20025;-38
2021/05/28 05:10:45;;;;;;;1.75;1.00;;;20.70;55.50;;;;;;5053189;28;20116;-37
2021/05/28 05:13:13;;;;;;;2.78;1.20;;;20.70;55.50;;;;;;5052414;28;20117;-37
2021/05/28 05:15:39;;;;;;;2.45;1.17;;;20.70;55.40;;;;;;5053451;28;20021;-38
2021/05/28 05:18:08;;;;;;;1.42;0.90;;;20.80;55.40;;;;;;5052419;28;20039;-37
2021/05/28 05:20:37;;;;;;;1.77;0.93;;;20.70;55.30;;;;;;5053215;28;20474;-37
2021/05/28 05:23:04;;;;;;;1.30;0.98;;;20.70;55.30;;;;;;5052334;28;20467;-37
2021/05/28 05:25:30;;;;;;;2.35;0.90;;;20.70;55.30;;;;;;5053293;28;20056;-37
2021/05/28 05:27:55;;;;;;;1.90;0.90;;;20.70;55.20;;;;;;5052390;28;20470;-37
2021/05/28 05:30:22;;;;;;;3.90;1.13;;;20.80;55.50;;;;;;5052477;28;20041;-61
2021/05/28 05:32:47;;;;;;;5.03;1.30;;;20.80;55.60;;;;;;5052615;28;20535;-63
2021/05/28 05:35:14;;;;;;;5.35;1.58;;;20.80;55.20;;;;;;5052349;28;20025;-56
2021/05/28 05:37:40;;;;;;;1.20;1.00;;;20.70;54.40;;;;;;5052915;28;20082;-63
2021/05/28 05:40:07;;;;;;;8.38;1.85;;;20.70;55.50;;;;;;5052323;28;20466;-63
2021/05/28 05:42:37;;;;;;;4.30;1.90;;;20.80;53.90;;;;;;5052955;28;20064;-64
2021/05/28 05:45:04;;;;;;;2.33;1.42;;;20.70;53.90;;;;;;5052043;28;20087;-63
2021/05/28 05:47:30;;;;;;;5.47;2.00;;;20.70;53.60;;;;;;5051102;28;20035;-63
2021/05/28 05:49:56;;;;;;;5.07;1.63;;;20.70;53.60;;;;;;5052112;28;20470;-53
2021/05/28 05:52:22;;;;;;;8.20;1.67;;;20.70;53.40;;;;;;5052516;28;20025;-60
2021/05/28 05:54:47;;;;;;;8.80;1.23;;;20.80;56.50;;;;;;5049075;28;20029;-65
2021/05/28 05:57:13;;;;;;;6.30;1.25;;;20.90;56.30;;;;;;5051299;28;20160;-58
2021/05/28 05:59:39;;;;;;;4.25;1.50;;;20.90;54.90;;;;;;5034822;28;20029;-63
2021/05/28 06:02:05;;;;;;;5.70;2.25;;;20.80;54.50;;;;;;5051590;28;20028;-62
2021/05/28 06:04:31;;;;;;;3.55;1.65;;;20.80;54.10;;;;;;5052475;28;20060;-62
2021/05/28 06:06:56;;;;;;;7.50;1.90;;;20.80;53.40;;;;;;5052621;28;20029;-50
2021/05/28 06:09:22;;;;;;;6.50;2.00;;;20.80;53.80;;;;;;5052275;28;20040;-62
2021/05/28 06:11:47;;;;;;;7.85;2.20;;;20.80;53.90;;;;;;5052093;28;20442;-62
2021/05/28 06:14:13;;;;;;;9.15;2.60;;;20.70;53.40;;;;;;5051324;28;20051;-62
2021/05/28 06:16:39;;;;;;;5.45;2.22;;;20.70;53.70;;;;;;5031702;28;20058;-60
2021/05/28 06:19:05;;;;;;;6.60;2.20;;;20.70;53.90;;;;;;5033238;28;20371;-64
2021/05/28 06:21:31;;;;;;;22.42;3.90;;;20.70;54.20;;;;;;5051448;28;20074;-52
2021/05/28 06:23:57;;;;;;;9.65;2.67;;;20.80;53.90;;;;;;5033366;28;20470;-48
2021/05/28 06:26:23;;;;;;;6.38;2.08;;;20.70;55.00;;;;;;5051831;28;20036;-60
2021/05/28 06:28:49;;;;;;;6.38;2.33;;;20.80;55.30;;;;;;5033143;28;20041;-62
2021/05/28 06:31:14;;;;;;;8.05;2.60;;;20.80;54.20;;;;;;5050449;28;20036;-63
2021/05/28 06:33:40;;;;;;;6.45;2.08;;;20.80;53.90;;;;;;5051240;28;20060;-62
2021/05/28 06:36:06;;;;;;;6.68;2.58;;;20.80;53.70;;;;;;5051135;28;20032;-62
2021/05/28 06:38:32;;;;;;;9.93;2.20;;;20.80;53.60;;;;;;5051763;28;20037;-62
2021/05/28 06:40:58;;;;;;;6.80;2.20;;;20.80;53.80;;;;;;5051004;28;20037;-50
2021/05/28 06:43:23;;;;;;;9.52;2.42;;;20.70;53.80;;;;;;5050673;28;20029;-63
2021/05/28 06:45:49;;;;;;;6.57;2.88;;;20.80;54.10;;;;;;5051513;28;20367;-63
2021/05/28 06:48:15;;;;;;;12.43;2.58;;;20.80;53.80;;;;;;5048334;28;20033;-62
2021/05/28 06:50:41;;;;;;;6.03;2.05;;;20.80;53.50;;;;;;5050813;28;20051;-58
2021/05/28 06:53:08;;;;;;;5.28;3.03;;;20.80;54.00;;;;;;5050424;28;20037;-63
2021/05/28 06:55:35;;;;;;;4.03;2.33;;;20.80;53.40;;;;;;5050946;28;20036;-62
2021/05/28 06:58:01;;;;;;;4.30;2.08;;;20.80;53.80;;;;;;5049784;28;20041;-61
2021/05/28 07:00:26;;;;;;;8.82;3.03;;;20.80;53.20;;;;;;5051268;28;20032;-62
2021/05/28 07:02:55;;;;;;;6.05;2.35;;;20.80;54.40;;;;;;5051210;28;20032;-60
2021/05/28 07:05:24;;;;;;;5.57;2.42;;;20.80;53.30;;;;;;5050672;28;20025;-62
2021/05/28 07:07:50;;;;;;;6.55;2.50;;;20.80;53.30;;;;;;5051861;28;20117;-61
2021/05/28 07:10:16;;;;;;;7.55;2.47;;;20.80;54.30;;;;;;5050285;28;20392;-62
2021/05/28 07:12:41;;;;;;;4.93;2.17;;;20.80;53.50;;;;;;5050674;28;20424;-61
2021/05/28 07:15:08;;;;;;;5.80;2.10;;;20.80;53.20;;;;;;5050506;28;20093;-62
2021/05/28 07:17:34;;;;;;;3.13;2.13;;;20.70;53.60;;;;;;5051135;28;20025;-62
2021/05/28 07:20:00;;;;;;;5.20;2.00;;;20.80;53.00;;;;;;5050125;28;20036;-48
2021/05/28 07:22:26;;;;;;;4.50;1.98;;;20.80;53.30;;;;;;5050785;28;20159;-61
2021/05/28 07:24:52;;;;;;;4.82;2.08;;;20.80;53.20;;;;;;5051207;28;20485;-62
2021/05/28 07:27:17;;;;;;;4.93;2.53;;;20.70;53.60;;;;;;5049460;28;20090;-58
2021/05/28 07:29:43;;;;;;;6.47;1.90;;;20.70;53.10;;;;;;5050781;28;20041;-62
2021/05/28 07:32:09;;;;;;;7.30;2.60;;;20.70;52.70;;;;;;5051928;28;20036;-62
2021/05/28 07:34:36;;;;;;;4.00;2.03;;;20.80;53.30;;;;;;5052045;28;20032;-63
2021/05/28 07:37:02;;;;;;;4.55;2.42;;;20.70;53.60;;;;;;5050260;28;20082;-61
2021/05/28 07:39:28;;;;;;;3.92;2.00;;;20.80;52.70;;;;;;5051097;28;20029;-62
2021/05/28 07:41:54;;;;;;;5.22;2.20;;;20.80;52.80;;;;;;5032788;28;20025;-55
2021/05/28 07:44:19;;;;;;;5.10;2.30;;;20.70;52.50;;;;;;5045676;28;20021;-62
2021/05/28 07:46:45;;;;;;;3.95;1.98;;;20.80;53.10;;;;;;5050569;28;20359;-63
2021/05/28 07:49:14;;;;;;;4.40;2.22;;;20.80;52.80;;;;;;5031368;28;20454;-63
2021/05/28 07:51:41;;;;;;;2.75;1.83;;;20.70;52.40;;;;;;5050493;28;20044;-64
2021/05/28 07:54:07;;;;;;;4.63;2.05;;;20.80;52.70;;;;;;5051879;28;20035;-62
2021/05/28 07:56:34;;;;;;;3.38;1.77;;;20.80;52.60;;;;;;5053755;28;20029;-62
2021/05/28 07:59:00;;;;;;;3.50;2.38;;;20.70;52.10;;;;;;5053795;28;20049;-49
2021/05/28 08:01:28;;;;;;;4.68;2.30;;;20.70;52.50;;;;;;5054012;28;20037;-63
2021/05/28 08:03:56;;;;;;;3.88;2.05;;;20.80;52.30;;;;;;5054575;28;20096;-62
2021/05/28 08:06:21;;;;;;;3.80;2.17;;;20.80;52.80;;;;;;5055980;28;20121;-62
2021/05/28 08:08:47;;;;;;;5.45;2.50;;;20.80;52.20;;;;;;5055551;28;20025;-54
2021/05/28 08:11:13;;;;;;;3.63;2.33;;;20.80;52.20;;;;;;5053290;28;20044;-62
2021/05/28 08:13:39;;;;;;;4.90;2.22;;;20.80;52.60;;;;;;5054557;28;20040;-63
2021/05/28 08:16:05;;;;;;;3.10;1.70;;;20.80;52.10;;;;;;5053723;28;20021;-56
2021/05/28 08:18:31;;;;;;;4.97;1.90;;;20.80;51.80;;;;;;5051678;28;21608;-61
2021/05/28 08:20:57;;;;;;;4.80;1.90;;;20.80;51.90;;;;;;5036016;28;20037;-62
2021/05/28 08:23:23;;;;;;;3.72;2.20;;;20.80;52.00;;;;;;5053415;28;20063;-63
2021/05/28 08:25:49;;;;;;;3.15;2.00;;;20.80;51.70;;;;;;5054017;28;20132;-63
2021/05/28 08:28:19;;;;;;;3.15;2.10;;;20.80;52.00;;;;;;5035409;28;20087;-62
2021/05/28 08:30:45;;;;;;;4.47;1.90;;;20.80;51.70;;;;;;5054160;28;20041;-61
2021/05/28 08:33:12;;;;;;;3.75;2.22;;;20.80;51.80;;;;;;5053650;28;20025;-62
2021/05/28 08:35:39;;;;;;;2.45;1.60;;;20.80;51.70;;;;;;5054733;28;20029;-62
2021/05/28 08:38:05;;;;;;;4.15;1.90;;;20.80;51.40;;;;;;5048527;28;20037;-60
2021/05/28 08:40:32;;;;;;;4.10;1.55;;;20.80;51.30;;;;;;5054568;28;20029;-62
2021/05/28 08:43:00;;;;;;;2.15;1.33;;;20.80;52.50;;;;;;5053958;28;20017;-63
2021/05/28 08:45:46;;;;;;;2.67;1.77;;;20.80;51.90;;;;;;5053564;28;20033;-63
2021/05/28 08:48:15;;;;;;;3.17;1.58;;;20.80;51.50;;;;;;5052910;28;20029;-62
2021/05/28 08:50:42;;;;;;;2.33;1.80;;;20.80;51.40;;;;;;5053767;28;20021;-62
2021/05/28 08:53:09;;;;;;;3.35;1.80;;;20.80;51.70;;;;;;5035034;28;20123;-61
2021/05/28 08:55:37;;;;;;;1.98;1.50;;;20.80;51.30;;;;;;5054033;28;20024;-62
2021/05/28 08:58:07;;;;;;;3.17;1.80;;;20.80;51.50;;;;;;5044621;28;20045;-49
2021/05/28 09:00:34;;;;;;;2.03;1.42;;;20.80;51.30;;;;;;5053835;28;20041;-62
2021/05/28 09:03:23;;;;;;;2.85;1.52;;;20.80;51.20;;;;;;5053429;28;20029;-62
2021/05/28 09:05:49;;;;;;;3.10;1.90;;;20.80;50.80;;;;;;5042889;28;20120;-62
2021/05/28 09:08:35;;;;;;;2.50;1.58;;;20.80;50.80;;;;;;5052182;28;20363;-55
2021/05/28 09:11:16;;;;;;;2.17;1.30;;;20.90;51.00;;;;;;5050573;28;20398;-48
2021/05/28 09:13:52;;;;;;;2.55;1.00;;;20.90;51.80;;;;;;5052236;28;20029;-59
2021/05/28 09:16:26;;;;;;;2.92;1.45;;;20.90;51.90;;;;;;5050761;28;20428;-60
2021/05/28 09:18:56;;;;;;;1.30;1.00;;;20.80;52.10;;;;;;5052622;28;20032;-59
2021/05/28 09:21:30;;;;;;;3.42;1.30;;;20.90;52.40;;;;;;5044580;28;20033;-60
2021/05/28 09:23:57;;;;;;;2.63;1.20;;;20.90;52.50;;;;;;5053464;28;20029;-60
2021/05/28 09:26:27;;;;;;;3.50;1.75;;;20.90;52.50;;;;;;5052053;28;20033;-60
2021/05/28 09:28:54;;;;;;;3.35;1.23;;;21.00;53.10;;;;;;5052237;28;20492;-60
2021/05/28 09:31:22;;;;;;;2.08;1.20;;;21.00;52.50;;;;;;5047712;28;20445;-60
2021/05/28 09:33:50;;;;;;;2.25;1.10;;;21.00;52.40;;;;;;5052693;28;20032;-59
2021/05/28 09:36:24;;;;;;;2.28;1.35;;;21.00;52.50;;;;;;5051841;28;20090;-59
2021/05/28 09:42:24;;;;;;;2.15;1.30;;;21.00;52.40;;;;;;5049274;28;20124;-59
2021/05/28 09:44:50;;;;;;;2.22;1.10;;;21.00;52.70;;;;;;5053042;28;20021;-60
2021/05/28 09:47:19;;;;;;;1.30;0.90;;;21.00;52.60;;;;;;5051421;28;20032;-59
2021/05/28 09:49:48;;;;;;;3.13;1.70;;;21.10;52.60;;;;;;5052527;28;20033;-59
2021/05/28 09:52:32;;;;;;;2.03;1.15;;;21.10;52.70;;;;;;5050837;28;20033;-60
2021/05/28 09:55:26;;;;;;;1.30;1.20;;;21.10;52.60;;;;;;5052007;28;20028;-59
2021/05/28 09:57:53;;;;;;;1.30;1.00;;;21.10;52.70;;;;;;5052349;28;20045;-59
2021/05/28 10:00:28;;;;;;;5.25;1.48;;;21.10;52.60;;;;;;5050869;28;20037;-59
2021/05/28 10:03:11;;;;;;;1.67;1.10;;;21.10;52.60;;;;;;5044326;28;20028;-58
2021/05/28 10:05:39;;;;;;;3.47;1.05;;;21.10;52.60;;;;;;5052429;28;20025;-59
2021/05/28 10:08:07;;;;;;;2.13;1.13;;;21.20;52.60;;;;;;5059726;28;20051;-49
2021/05/28 10:10:33;;;;;;;2.00;0.90;;;21.20;52.60;;;;;;5051797;28;20032;-57
2021/05/28 10:13:01;;;;;;;1.73;1.30;;;21.20;52.50;;;;;;5034422;28;20045;-58
2021/05/28 10:15:27;;;;;;;1.95;1.00;;;21.20;52.60;;;;;;5050911;28;20020;-58
2021/05/28 10:17:53;;;;;;;1.52;1.02;;;21.20;52.60;;;;;;5034298;28;20029;-59
2021/05/28 10:20:19;;;;;;;1.55;0.90;;;21.20;52.50;;;;;;5050070;28;20397;-59
2021/05/28 10:22:45;;;;;;;1.83;1.20;;;21.20;52.50;;;;;;5051620;28;20036;-60
2021/05/28 10:25:11;;;;;;;1.40;0.90;;;21.20;52.50;;;;;;5046479;28;20037;-58
2021/05/28 10:27:37;;;;;;;1.98;1.25;;;21.20;52.50;;;;;;5051927;28;20458;-59
2021/05/28 10:30:13;;;;;;;1.90;0.93;;;21.20;52.50;;;;;;5051483;28;20041;-59
2021/05/28 10:32:39;;;;;;;2.00;1.10;;;21.20;52.50;;;;;;5049089;28;20551;-57
2021/05/28 10:35:19;;;;;;;1.70;0.80;;;21.20;52.40;;;;;;5052228;28;20037;-59
2021/05/28 10:37:46;;;;;;;3.20;1.10;;;21.20;52.40;;;;;;5051533;28;20037;-59
2021/05/28 10:40:25;;;;;;;2.10;1.10;;;21.20;52.50;;;;;;5051013;28;20120;-48
2021/05/28 10:43:05;;;;;;;1.58;1.20;;;21.20;52.50;;;;;;5051663;28;20025;-59
2021/05/28 10:46:01;;;;;;;1.48;1.30;;;21.20;52.50;;;;;;5051048;28;20151;-58
2021/05/28 10:48:39;;;;;;;1.40;1.10;;;21.20;52.40;;;;;;5047279;28;20017;-59
2021/05/28 10:51:06;;;;;;;1.55;1.00;;;21.20;52.40;;;;;;5051526;28;20033;-59
2021/05/28 10:53:32;;;;;;;1.50;1.08;;;21.20;52.50;;;;;;5050862;28;20036;-58
2021/05/28 10:56:07;;;;;;;1.20;1.10;;;21.30;52.50;;;;;;5051530;28;20166;-59
2021/05/28 10:58:52;;;;;;;2.35;0.82;;;21.30;52.50;;;;;;5050511;28;20127;-59
2021/05/28 11:01:35;;;;;;;2.15;0.98;;;21.30;52.50;;;;;;5050163;28;20040;-58
2021/05/28 11:04:11;;;;;;;2.35;1.05;;;21.30;52.50;;;;;;5051222;28;20100;-59
2021/05/28 11:06:55;;;;;;;1.42;0.98;;;21.30;52.40;;;;;;5056055;28;20035;-59
2021/05/28 11:09:43;;;;;;;1.58;0.90;;;21.30;52.40;;;;;;5050512;28;20116;-60
2021/05/28 11:12:24;;;;;;;1.60;1.15;;;21.30;52.40;;;;;;5033415;28;20418;-48
2021/05/28 11:15:10;;;;;;;1.55;1.10;;;21.30;52.50;;;;;;5051170;28;20029;-59
2021/05/28 11:17:59;;;;;;;1.42;1.00;;;21.30;52.40;;;;;;5050534;28;20039;-56
2021/05/28 11:20:33;;;;;;;1.30;0.95;;;21.30;52.40;;;;;;5043749;28;20041;-59
2021/05/28 11:23:00;;;;;;;1.25;0.82;;;21.30;52.40;;;;;;5050846;28;20520;-59
2021/05/28 11:25:31;;;;;;;1.42;0.90;;;21.30;52.20;;;;;;5050242;28;20104;-59
2021/05/28 11:28:09;;;;;;;3.50;1.02;;;21.30;52.40;;;;;;5052937;28;20036;-60
2021/05/28 11:30:43;;;;;;;2.33;1.05;;;21.30;53.10;;;;;;5046839;28;20045;-59
2021/05/28 11:33:29;;;;;;;1.60;0.82;;;21.40;53.60;;;;;;5057921;28;20029;-53
2021/05/28 11:35:54;;;;;;;3.45;1.27;;;21.30;53.60;;;;;;5057326;28;20044;-59
2021/05/28 11:38:36;;;;;;;1.00;0.90;;;21.40;54.60;;;;;;5056653;28;20025;-59
2021/05/28 11:41:02;;;;;;;1.85;1.02;;;21.30;54.20;;;;;;5057858;28;20029;-59
2021/05/28 11:43:35;;;;;;;2.30;1.35;;;21.40;53.90;;;;;;5056931;28;20028;-59
2021/05/28 11:46:00;;;;;;;1.80;0.90;;;21.40;53.90;;;;;;5057584;28;20420;-60
2021/05/28 11:48:28;;;;;;;1.60;0.98;;;21.40;54.00;;;;;;5056405;28;20083;-60
2021/05/28 11:50:56;;;;;;;1.27;1.10;;;21.40;54.10;;;;;;5057057;28;20357;-60
2021/05/28 11:53:23;;;;;;;1.05;0.93;;;21.40;54.00;;;;;;5056736;28;20043;-59
2021/05/28 11:55:54;;;;;;;1.60;1.20;;;21.40;53.90;;;;;;5057442;28;20428;-58
2021/05/28 11:58:21;;;;;;;1.70;0.98;;;21.40;53.90;;;;;;5056383;28;20052;-59
2021/05/28 12:00:49;;;;;;;1.08;0.82;;;21.40;54.10;;;;;;5057244;28;20458;-57
2021/05/28 12:03:15;;;;;;;2.33;0.90;;;21.40;53.90;;;;;;5056818;28;20048;-57
2021/05/28 12:05:46;;;;;;;2.03;1.00;;;21.40;53.90;;;;;;5057482;28;20025;-60
2021/05/28 12:08:18;;;;;;;0.80;0.60;;;21.40;53.80;;;;;;5058806;28;20029;-48
2021/05/28 12:10:57;;;;;;;1.00;0.80;;;21.40;53.80;;;;;;5057494;28;20036;-59
2021/05/28 12:13:24;;;;;;;1.40;0.80;;;21.40;53.70;;;;;;5053444;28;20171;-59
2021/05/28 12:15:55;;;;;;;1.75;1.25;;;21.40;53.60;;;;;;5054695;28;20498;-59
2021/05/28 12:18:33;;;;;;;2.03;0.90;;;21.40;53.50;;;;;;5052374;28;20036;-59
2021/05/28 12:21:13;;;;;;;1.15;0.88;;;21.50;53.60;;;;;;5057585;28;20052;-58
2021/05/28 12:23:46;;;;;;;1.20;0.75;;;21.40;53.40;;;;;;5057178;28;20059;-60
2021/05/28 12:26:16;;;;;;;1.17;0.88;;;21.50;53.40;;;;;;5057007;28;20028;-49
2021/05/28 12:28:51;;;;;;;0.85;0.80;;;21.50;53.30;;;;;;5057517;28;20040;-59
2021/05/28 12:31:36;;;;;;;1.10;1.00;;;21.50;53.20;;;;;;5056831;28;20083;-59
2021/05/28 12:34:09;;;;;;;1.10;0.90;;;21.50;53.10;;;;;;5064874;28;20047;-60
2021/05/28 12:36:42;;;;;;;1.60;0.90;;;21.50;53.10;;;;;;5056515;28;20028;-59
2021/05/28 12:39:13;;;;;;;1.33;0.88;;;21.50;52.90;;;;;;5057038;28;20367;-60
2021/05/28 12:41:44;;;;;;;1.00;0.70;;;21.50;53.00;;;;;;5053804;28;20115;-59
2021/05/28 12:44:16;;;;;;;1.40;0.90;;;21.50;52.90;;;;;;5054619;28;20271;-60
2021/05/28 12:46:41;;;;;;;1.33;0.88;;;21.50;52.80;;;;;;5052223;28;20130;-57
2021/05/28 12:49:14;;;;;;;0.95;0.65;;;21.50;52.00;;;;;;5045376;28;20536;-59
2021/05/28 12:51:42;;;;;;;1.00;0.90;;;21.50;52.20;;;;;;5053573;28;20037;-59
2021/05/28 12:54:30;;;;;;;2.53;1.30;;;21.50;52.90;;;;;;5053510;28;20071;-60
2021/05/28 12:57:02;;;;;;;1.85;0.90;;;21.50;52.50;;;;;;5053617;28;20116;-59